sensor_id;sensor_type;location;lat;lon;timestamp;pressure;altitude;pressure_sealevel;temperature;humidity
11223;BME280;5668;52.012;8.724;2023-04-26T00:01:37;100316.94;;;7.80;70.24
11223;BME280;5668;52.012;8.724;2023-04-26T00:04:06;100320.59;;;7.76;69.19
11223;BME280;5668;52.012;8.724;2023-04-26T00:06:33;100320.81;;;7.73;69.54
11223;BME280;5668;52.012;8.724;2023-04-26T00:09:02;100320.06;;;7.71;70.06
11223;BME280;5668;52.012;8.724;2023-04-26T00:11:29;100327.06;;;7.69;69.26
11223;BME280;5668;52.012;8.724;2023-04-26T00:13:57;100329.84;;;7.66;70.39
11223;BME280;5668;52.012;8.724;2023-04-26T00:16:25;100329.16;;;7.62;69.55
11223;BME280;5668;52.012;8.724;2023-04-26T00:18:52;100334.41;;;7.61;70.52
11223;BME280;5668;52.012;8.724;2023-04-26T00:21:20;100329.44;;;7.58;70.71
11223;BME280;5668;52.012;8.724;2023-04-26T00:23:48;100333.69;;;7.59;70.90
11223;BME280;5668;52.012;8.724;2023-04-26T00:26:15;100326.84;;;7.58;70.37
11223;BME280;5668;52.012;8.724;2023-04-26T00:28:42;100332.94;;;7.57;71.24
11223;BME280;5668;52.012;8.724;2023-04-26T00:31:13;100317.44;;;7.57;71.12
11223;BME280;5668;52.012;8.724;2023-04-26T00:33:41;100318.34;;;7.56;71.47
11223;BME280;5668;52.012;8.724;2023-04-26T00:36:09;100323.53;;;7.56;70.90
11223;BME280;5668;52.012;8.724;2023-04-26T00:38:37;100330.53;;;7.54;70.83
11223;BME280;5668;52.012;8.724;2023-04-26T00:41:04;100321.84;;;7.55;70.77
11223;BME280;5668;52.012;8.724;2023-04-26T00:43:32;100327.03;;;7.55;70.34
11223;BME280;5668;52.012;8.724;2023-04-26T00:45:59;100326.28;;;7.53;70.17
11223;BME280;5668;52.012;8.724;2023-04-26T00:48:26;100324.63;;;7.52;70.44
11223;BME280;5668;52.012;8.724;2023-04-26T00:50:54;100324.78;;;7.49;70.25
11223;BME280;5668;52.012;8.724;2023-04-26T00:53:22;100319.78;;;7.46;70.71
11223;BME280;5668;52.012;8.724;2023-04-26T00:55:50;100319.78;;;7.46;70.41
11223;BME280;5668;52.012;8.724;2023-04-26T00:58:19;100326.81;;;7.44;71.06
11223;BME280;5668;52.012;8.724;2023-04-26T01:00:46;100319.97;;;7.43;70.50
11223;BME280;5668;52.012;8.724;2023-04-26T01:03:15;100323.56;;;7.40;71.39
11223;BME280;5668;52.012;8.724;2023-04-26T01:05:43;100327.06;;;7.39;70.68
11223;BME280;5668;52.012;8.724;2023-04-26T01:08:10;100330.66;;;7.36;70.51
11223;BME280;5668;52.012;8.724;2023-04-26T01:10:39;100329.00;;;7.35;71.48
11223;BME280;5668;52.012;8.724;2023-04-26T01:13:08;100327.47;;;7.31;71.08
11223;BME280;5668;52.012;8.724;2023-04-26T01:15:36;100329.31;;;7.29;71.65
11223;BME280;5668;52.012;8.724;2023-04-26T01:18:03;100325.25;;;7.25;71.48
11223;BME280;5668;52.012;8.724;2023-04-26T01:20:31;100326.16;;;7.24;72.72
11223;BME280;5668;52.012;8.724;2023-04-26T01:22:59;100329.66;;;7.23;71.79
11223;BME280;5668;52.012;8.724;2023-04-26T01:25:26;100335.75;;;7.22;72.51
11223;BME280;5668;52.012;8.724;2023-04-26T01:27:54;100328.94;;;7.21;72.82
11223;BME280;5668;52.012;8.724;2023-04-26T01:30:21;100328.94;;;7.21;72.54
11223;BME280;5668;52.012;8.724;2023-04-26T01:32:48;100329.03;;;7.20;72.60
11223;BME280;5668;52.012;8.724;2023-04-26T01:35:15;100333.34;;;7.19;72.67
11223;BME280;5668;52.012;8.724;2023-04-26T01:37:43;100327.50;;;7.16;72.68
11223;BME280;5668;52.012;8.724;2023-04-26T01:40:13;100326.66;;;7.15;73.09
11223;BME280;5668;52.012;8.724;2023-04-26T01:42:40;100325.00;;;7.14;73.52
11223;BME280;5668;52.012;8.724;2023-04-26T01:45:08;100321.50;;;7.15;72.68
11223;BME280;5668;52.012;8.724;2023-04-26T01:47:36;100325.94;;;7.13;73.10
11223;BME280;5668;52.012;8.724;2023-04-26T01:50:05;100326.84;;;7.12;73.59
11223;BME280;5668;52.012;8.724;2023-04-26T01:52:33;100326.84;;;7.12;73.33
11223;BME280;5668;52.012;8.724;2023-04-26T01:55:01;100330.34;;;7.11;72.73
11223;BME280;5668;52.012;8.724;2023-04-26T01:57:29;100325.34;;;7.08;73.09
11223;BME280;5668;52.012;8.724;2023-04-26T01:59:56;100322.13;;;7.05;73.06
11223;BME280;5668;52.012;8.724;2023-04-26T02:02:24;100319.69;;;7.02;72.97
11223;BME280;5668;52.012;8.724;2023-04-26T02:04:51;100316.34;;;6.99;74.38
11223;BME280;5668;52.012;8.724;2023-04-26T02:07:18;100319.03;;;6.98;73.89
11223;BME280;5668;52.012;8.724;2023-04-26T02:09:46;100318.28;;;6.96;74.12
11223;BME280;5668;52.012;8.724;2023-04-26T02:12:13;100326.19;;;6.93;74.60
11223;BME280;5668;52.012;8.724;2023-04-26T02:14:41;100321.19;;;6.90;73.44
11223;BME280;5668;52.012;8.724;2023-04-26T02:17:09;100323.09;;;6.86;74.58
11223;BME280;5668;52.012;8.724;2023-04-26T02:19:36;100322.47;;;6.83;74.11
11223;BME280;5668;52.012;8.724;2023-04-26T02:22:04;100325.88;;;6.83;74.04
11223;BME280;5668;52.012;8.724;2023-04-26T02:24:33;100328.53;;;6.82;74.32
11223;BME280;5668;52.012;8.724;2023-04-26T02:27:00;100333.69;;;6.82;74.80
11223;BME280;5668;52.012;8.724;2023-04-26T02:29:29;100329.44;;;6.81;74.57
11223;BME280;5668;52.012;8.724;2023-04-26T02:31:57;100329.44;;;6.81;74.71
11223;BME280;5668;52.012;8.724;2023-04-26T02:34:25;100325.13;;;6.81;74.09
11223;BME280;5668;52.012;8.724;2023-04-26T02:36:52;100327.78;;;6.80;74.28
11223;BME280;5668;52.012;8.724;2023-04-26T02:39:19;100332.19;;;6.78;74.54
11223;BME280;5668;52.012;8.724;2023-04-26T02:41:46;100330.63;;;6.75;73.85
11223;BME280;5668;52.012;8.724;2023-04-26T02:44:14;100322.75;;;6.77;74.27
11223;BME280;5668;52.012;8.724;2023-04-26T02:46:41;100328.88;;;6.76;74.78
11223;BME280;5668;52.012;8.724;2023-04-26T02:49:10;100327.19;;;6.75;74.72
11223;BME280;5668;52.012;8.724;2023-04-26T02:51:37;100327.94;;;6.77;74.54
11223;BME280;5668;52.012;8.724;2023-04-26T02:54:04;100328.88;;;6.76;74.14
11223;BME280;5668;52.012;8.724;2023-04-26T02:56:32;100333.28;;;6.74;74.43
11223;BME280;5668;52.012;8.724;2023-04-26T02:58:59;100329.94;;;6.72;74.39
11223;BME280;5668;52.012;8.724;2023-04-26T03:01:26;100335.09;;;6.72;74.88
11223;BME280;5668;52.012;8.724;2023-04-26T03:03:54;100337.88;;;6.69;74.38
11223;BME280;5668;52.012;8.724;2023-04-26T03:06:22;100336.84;;;6.71;75.00
11223;BME280;5668;52.012;8.724;2023-04-26T03:08:49;100337.69;;;6.72;75.12
11223;BME280;5668;52.012;8.724;2023-04-26T03:11:17;100336.78;;;6.73;74.15
11223;BME280;5668;52.012;8.724;2023-04-26T03:13:44;100342.69;;;6.75;74.27
11223;BME280;5668;52.012;8.724;2023-04-26T03:16:11;100340.13;;;6.75;74.17
11223;BME280;5668;52.012;8.724;2023-04-26T03:18:38;100344.44;;;6.74;74.07
11223;BME280;5668;52.012;8.724;2023-04-26T03:21:06;100340.19;;;6.73;74.11
11223;BME280;5668;52.012;8.724;2023-04-26T03:23:34;100331.59;;;6.73;74.28
11223;BME280;5668;52.012;8.724;2023-04-26T03:26:01;100335.09;;;6.72;73.78
11223;BME280;5668;52.012;8.724;2023-04-26T03:28:29;100331.75;;;6.70;74.39
11223;BME280;5668;52.012;8.724;2023-04-26T03:30:56;100334.34;;;6.70;74.21
11223;BME280;5668;52.012;8.724;2023-04-26T03:33:24;100334.44;;;6.68;74.19
11223;BME280;5668;52.012;8.724;2023-04-26T03:35:51;100325.88;;;6.68;74.08
11223;BME280;5668;52.012;8.724;2023-04-26T03:38:18;100326.84;;;6.65;73.51
11223;BME280;5668;52.012;8.724;2023-04-26T03:40:47;100325.19;;;6.64;73.68
11223;BME280;5668;52.012;8.724;2023-04-26T03:43:14;100322.66;;;6.63;74.16
11223;BME280;5668;52.012;8.724;2023-04-26T03:45:41;100321.94;;;6.60;74.36
11223;BME280;5668;52.012;8.724;2023-04-26T03:48:08;100321.00;;;6.61;73.84
11223;BME280;5668;52.012;8.724;2023-04-26T03:50:36;100321.00;;;6.61;74.28
11223;BME280;5668;52.012;8.724;2023-04-26T03:53:04;100318.41;;;6.61;74.39
11223;BME280;5668;52.012;8.724;2023-04-26T03:55:31;100322.84;;;6.59;73.56
11223;BME280;5668;52.012;8.724;2023-04-26T03:58:00;100326.28;;;6.60;74.02
11223;BME280;5668;52.012;8.724;2023-04-26T04:00:28;100316.84;;;6.59;74.19
11223;BME280;5668;52.012;8.724;2023-04-26T04:02:55;100319.50;;;6.57;73.66
11223;BME280;5668;52.012;8.724;2023-04-26T04:05:22;100316.09;;;6.57;74.35
11223;BME280;5668;52.012;8.724;2023-04-26T04:07:49;100325.59;;;6.56;74.21
11223;BME280;5668;52.012;8.724;2023-04-26T04:10:17;100325.66;;;6.55;74.39
11223;BME280;5668;52.012;8.724;2023-04-26T04:12:45;100322.34;;;6.53;74.17
11223;BME280;5668;52.012;8.724;2023-04-26T04:15:14;100325.84;;;6.52;73.63
11223;BME280;5668;52.012;8.724;2023-04-26T04:17:41;100319.91;;;6.50;74.61
11223;BME280;5668;52.012;8.724;2023-04-26T04:20:10;100330.31;;;6.48;73.90
11223;BME280;5668;52.012;8.724;2023-04-26T04:22:38;100331.16;;;6.49;74.42
11223;BME280;5668;52.012;8.724;2023-04-26T04:25:06;100334.81;;;6.45;74.59
11223;BME280;5668;52.012;8.724;2023-04-26T04:27:35;100334.81;;;6.45;74.81
11223;BME280;5668;52.012;8.724;2023-04-26T04:30:04;100333.91;;;6.46;74.25
11223;BME280;5668;52.012;8.724;2023-04-26T04:32:34;100323.66;;;6.44;74.90
11223;BME280;5668;52.012;8.724;2023-04-26T04:35:01;100330.56;;;6.44;74.17
11223;BME280;5668;52.012;8.724;2023-04-26T04:37:30;100334.06;;;6.43;74.10
11223;BME280;5668;52.012;8.724;2023-04-26T04:39:58;100334.13;;;6.41;74.31
11223;BME280;5668;52.012;8.724;2023-04-26T04:42:26;100347.13;;;6.40;74.38
11223;BME280;5668;52.012;8.724;2023-04-26T04:44:53;100347.22;;;6.38;75.09
11223;BME280;5668;52.012;8.724;2023-04-26T04:47:21;100340.31;;;6.39;75.10
11223;BME280;5668;52.012;8.724;2023-04-26T04:49:50;100347.94;;;6.40;75.36
11223;BME280;5668;52.012;8.724;2023-04-26T04:52:18;100346.13;;;6.42;74.79
11223;BME280;5668;52.012;8.724;2023-04-26T04:54:46;100346.13;;;6.42;75.11
11223;BME280;5668;52.012;8.724;2023-04-26T04:57:13;100344.47;;;6.41;74.91
11223;BME280;5668;52.012;8.724;2023-04-26T04:59:41;100344.47;;;6.41;74.89
11223;BME280;5668;52.012;8.724;2023-04-26T05:02:09;100343.41;;;6.45;74.40
11223;BME280;5668;52.012;8.724;2023-04-26T05:04:36;100340.81;;;6.45;74.50
11223;BME280;5668;52.012;8.724;2023-04-26T05:07:05;100352.81;;;6.46;74.44
11223;BME280;5668;52.012;8.724;2023-04-26T05:09:32;100357.81;;;6.49;75.10
11223;BME280;5668;52.012;8.724;2023-04-26T05:12:00;100356.13;;;6.48;75.45
11223;BME280;5668;52.012;8.724;2023-04-26T05:14:29;100357.81;;;6.49;74.69
11223;BME280;5668;52.012;8.724;2023-04-26T05:16:56;100366.47;;;6.48;75.79
11223;BME280;5668;52.012;8.724;2023-04-26T05:19:23;100363.72;;;6.51;75.32
11223;BME280;5668;52.012;8.724;2023-04-26T05:21:51;100360.31;;;6.51;75.62
11223;BME280;5668;52.012;8.724;2023-04-26T05:24:20;100366.38;;;6.50;76.23
11223;BME280;5668;52.012;8.724;2023-04-26T05:26:47;100360.38;;;6.49;76.59
11223;BME280;5668;52.012;8.724;2023-04-26T05:29:15;100366.25;;;6.53;76.71
11223;BME280;5668;52.012;8.724;2023-04-26T05:31:42;100367.81;;;6.55;77.17
11223;BME280;5668;52.012;8.724;2023-04-26T05:34:10;100368.63;;;6.56;76.36
11223;BME280;5668;52.012;8.724;2023-04-26T05:36:37;100365.97;;;6.57;75.96
11223;BME280;5668;52.012;8.724;2023-04-26T05:39:04;100368.56;;;6.57;76.55
11223;BME280;5668;52.012;8.724;2023-04-26T05:41:33;100364.16;;;6.59;76.17
11223;BME280;5668;52.012;8.724;2023-04-26T05:44:01;100365.84;;;6.60;76.17
11223;BME280;5668;52.012;8.724;2023-04-26T05:46:28;100369.06;;;6.64;76.29
11223;BME280;5668;52.012;8.724;2023-04-26T05:48:55;100368.16;;;6.65;76.91
11223;BME280;5668;52.012;8.724;2023-04-26T05:51:23;100377.59;;;6.66;76.80
11223;BME280;5668;52.012;8.724;2023-04-26T05:53:50;100377.66;;;6.65;78.57
11223;BME280;5668;52.012;8.724;2023-04-26T05:56:17;100375.97;;;6.64;78.74
11223;BME280;5668;52.012;8.724;2023-04-26T05:58:46;100376.75;;;6.66;79.64
11223;BME280;5668;52.012;8.724;2023-04-26T06:01:13;100377.50;;;6.68;79.85
11223;BME280;5668;52.012;8.724;2023-04-26T06:03:40;100379.91;;;6.71;79.80
11223;BME280;5668;52.012;8.724;2023-04-26T06:06:08;100387.50;;;6.74;80.39
11223;BME280;5668;52.012;8.724;2023-04-26T06:08:35;100387.44;;;6.75;80.60
11223;BME280;5668;52.012;8.724;2023-04-26T06:11:03;100377.94;;;6.76;81.35
11223;BME280;5668;52.012;8.724;2023-04-26T06:13:30;100372.50;;;6.80;81.25
11223;BME280;5668;52.012;8.724;2023-04-26T06:15:59;100383.44;;;6.85;81.16
11223;BME280;5668;52.012;8.724;2023-04-26T06:18:26;100386.50;;;6.92;80.55
11223;BME280;5668;52.012;8.724;2023-04-26T06:20:53;100381.88;;;6.98;80.30
11223;BME280;5668;52.012;8.724;2023-04-26T06:23:21;100386.94;;;7.00;80.79
11223;BME280;5668;52.012;8.724;2023-04-26T06:25:48;100384.88;;;7.07;79.46
11223;BME280;5668;52.012;8.724;2023-04-26T06:28:15;100393.44;;;7.07;79.66
11223;BME280;5668;52.012;8.724;2023-04-26T06:30:42;100389.94;;;7.08;79.50
11223;BME280;5668;52.012;8.724;2023-04-26T06:33:11;100405.28;;;7.11;79.73
11223;BME280;5668;52.012;8.724;2023-04-26T06:35:39;100406.19;;;7.10;80.59
11223;BME280;5668;52.012;8.724;2023-04-26T06:38:06;100409.47;;;7.14;80.48
11223;BME280;5668;52.012;8.724;2023-04-26T06:40:34;100407.88;;;7.11;81.56
11223;BME280;5668;52.012;8.724;2023-04-26T06:43:02;100412.69;;;7.17;81.81
11223;BME280;5668;52.012;8.724;2023-04-26T06:45:30;100412.38;;;7.23;81.84
11223;BME280;5668;52.012;8.724;2023-04-26T06:47:57;100419.06;;;7.27;81.80
11223;BME280;5668;52.012;8.724;2023-04-26T06:50:28;100420.53;;;7.31;81.50
11223;BME280;5668;52.012;8.724;2023-04-26T06:52:55;100414.53;;;7.31;81.52
11223;BME280;5668;52.012;8.724;2023-04-26T06:55:23;100409.22;;;7.34;80.69
11223;BME280;5668;52.012;8.724;2023-04-26T06:57:50;100414.88;;;7.41;80.54
11223;BME280;5668;52.012;8.724;2023-04-26T07:00:17;100417.31;;;7.44;80.76
11223;BME280;5668;52.012;8.724;2023-04-26T07:02:45;100422.13;;;7.50;80.85
11223;BME280;5668;52.012;8.724;2023-04-26T07:05:12;100417.72;;;7.52;79.46
11223;BME280;5668;52.012;8.724;2023-04-26T07:07:41;100415.69;;;7.57;79.82
11223;BME280;5668;52.012;8.724;2023-04-26T07:10:10;100415.50;;;7.60;80.34
11223;BME280;5668;52.012;8.724;2023-04-26T07:12:38;100422.09;;;7.65;78.57
11223;BME280;5668;52.012;8.724;2023-04-26T07:15:07;100414.00;;;7.71;79.66
11223;BME280;5668;52.012;8.724;2023-04-26T07:17:34;100418.81;;;7.77;79.18
11223;BME280;5668;52.012;8.724;2023-04-26T07:20:01;100425.50;;;7.82;78.71
11223;BME280;5668;52.012;8.724;2023-04-26T07:22:29;100429.28;;;7.90;78.53
11223;BME280;5668;52.012;8.724;2023-04-26T07:24:57;100432.47;;;7.95;78.20
11223;BME280;5668;52.012;8.724;2023-04-26T07:27:25;100424.34;;;8.01;77.25
11223;BME280;5668;52.012;8.724;2023-04-26T07:29:53;100419.94;;;8.03;77.14
11223;BME280;5668;52.012;8.724;2023-04-26T07:32:21;100425.38;;;8.13;76.80
11223;BME280;5668;52.012;8.724;2023-04-26T07:34:49;100419.78;;;8.21;76.68
11223;BME280;5668;52.012;8.724;2023-04-26T07:37:16;100419.53;;;8.25;77.12
11223;BME280;5668;52.012;8.724;2023-04-26T07:39:43;100415.81;;;8.29;78.00
11223;BME280;5668;52.012;8.724;2023-04-26T07:42:12;100414.09;;;8.44;76.80
11223;BME280;5668;52.012;8.724;2023-04-26T07:44:39;100418.09;;;8.49;75.80
11223;BME280;5668;52.012;8.724;2023-04-26T07:47:11;100414.31;;;8.55;75.73
11223;BME280;5668;52.012;8.724;2023-04-26T07:49:39;100421.06;;;8.58;74.83
11223;BME280;5668;52.012;8.724;2023-04-26T07:52:07;100418.75;;;8.53;75.16
11223;BME280;5668;52.012;8.724;2023-04-26T07:54:35;100422.34;;;8.50;73.92
11223;BME280;5668;52.012;8.724;2023-04-26T07:57:02;100422.09;;;8.55;75.09
11223;BME280;5668;52.012;8.724;2023-04-26T07:59:31;100416.69;;;8.58;74.51
11223;BME280;5668;52.012;8.724;2023-04-26T08:01:58;100422.56;;;8.62;75.12
11223;BME280;5668;52.012;8.724;2023-04-26T08:04:32;100419.66;;;8.66;75.01
11223;BME280;5668;52.012;8.724;2023-04-26T08:07:00;100417.81;;;8.68;73.96
11223;BME280;5668;52.012;8.724;2023-04-26T08:09:27;100422.19;;;8.68;74.12
11223;BME280;5668;52.012;8.724;2023-04-26T08:11:55;100422.00;;;8.71;73.68
11223;BME280;5668;52.012;8.724;2023-04-26T08:14:23;100413.75;;;8.78;74.02
11223;BME280;5668;52.012;8.724;2023-04-26T08:16:51;100409.88;;;8.85;73.37
11223;BME280;5668;52.012;8.724;2023-04-26T08:19:19;100415.31;;;8.95;73.67
11223;BME280;5668;52.012;8.724;2023-04-26T08:21:46;100416.78;;;8.99;71.98
11223;BME280;5668;52.012;8.724;2023-04-26T08:24:13;100410.41;;;9.05;71.76
11223;BME280;5668;52.012;8.724;2023-04-26T08:26:40;100423.88;;;9.10;71.95
11223;BME280;5668;52.012;8.724;2023-04-26T08:29:08;100419.38;;;9.13;71.21
11223;BME280;5668;52.012;8.724;2023-04-26T08:31:35;100420.94;;;9.16;70.79
11223;BME280;5668;52.012;8.724;2023-04-26T08:34:04;100415.75;;;9.16;70.30
11223;BME280;5668;52.012;8.724;2023-04-26T08:36:34;100420.72;;;9.19;69.77
11223;BME280;5668;52.012;8.724;2023-04-26T08:39:01;100418.78;;;9.22;69.78
11223;BME280;5668;52.012;8.724;2023-04-26T08:41:33;100420.16;;;9.28;69.89
11223;BME280;5668;52.012;8.724;2023-04-26T08:44:02;100420.59;;;9.35;70.45
11223;BME280;5668;52.012;8.724;2023-04-26T08:46:33;100426.44;;;9.38;69.13
11223;BME280;5668;52.012;8.724;2023-04-26T08:49:12;100423.84;;;9.38;66.29
11223;BME280;5668;52.012;8.724;2023-04-26T08:51:44;100422.19;;;9.37;65.03
11223;BME280;5668;52.012;8.724;2023-04-26T08:54:12;100420.44;;;9.38;64.57
11223;BME280;5668;52.012;8.724;2023-04-26T08:56:42;100413.91;;;9.45;67.01
11223;BME280;5668;52.012;8.724;2023-04-26T08:59:10;100412.88;;;9.47;66.25
11223;BME280;5668;52.012;8.724;2023-04-26T09:01:39;100413.22;;;9.55;66.38
11223;BME280;5668;52.012;8.724;2023-04-26T09:04:08;100411.47;;;9.56;64.51
11223;BME280;5668;52.012;8.724;2023-04-26T09:06:37;100409.59;;;9.58;64.01
11223;BME280;5668;52.012;8.724;2023-04-26T09:09:05;100414.69;;;9.59;63.04
11223;BME280;5668;52.012;8.724;2023-04-26T09:11:52;100412.72;;;9.63;62.23
11223;BME280;5668;52.012;8.724;2023-04-26T09:14:20;100410.78;;;9.66;63.07
11223;BME280;5668;52.012;8.724;2023-04-26T09:16:48;100409.63;;;9.70;63.71
11223;BME280;5668;52.012;8.724;2023-04-26T09:19:29;100414.00;;;9.70;63.22
11223;BME280;5668;52.012;8.724;2023-04-26T09:22:00;100419.31;;;9.68;62.23
11223;BME280;5668;52.012;8.724;2023-04-26T09:24:28;100413.56;;;9.63;61.28
11223;BME280;5668;52.012;8.724;2023-04-26T09:27:12;100418.41;;;9.55;60.50
11223;BME280;5668;52.012;8.724;2023-04-26T09:29:39;100413.88;;;9.59;60.75
11223;BME280;5668;52.012;8.724;2023-04-26T09:32:06;100419.81;;;9.61;60.49
11223;BME280;5668;52.012;8.724;2023-04-26T09:34:45;100422.28;;;9.62;59.82
11223;BME280;5668;52.012;8.724;2023-04-26T09:37:13;100418.38;;;9.69;60.27
11223;BME280;5668;52.012;8.724;2023-04-26T09:39:41;100425.22;;;9.70;60.56
11223;BME280;5668;52.012;8.724;2023-04-26T09:42:09;100422.28;;;9.62;60.30
11223;BME280;5668;52.012;8.724;2023-04-26T09:44:37;100422.84;;;9.67;60.31
11223;BME280;5668;52.012;8.724;2023-04-26T09:47:05;100423.75;;;9.66;60.18
11223;BME280;5668;52.012;8.724;2023-04-26T09:49:45;100423.66;;;9.68;58.58
11223;BME280;5668;52.012;8.724;2023-04-26T09:52:14;100423.94;;;9.63;56.37
11223;BME280;5668;52.012;8.724;2023-04-26T09:54:43;100418.38;;;9.69;55.66
11223;BME280;5668;52.012;8.724;2023-04-26T09:57:11;100420.34;;;9.79;56.12
11223;BME280;5668;52.012;8.724;2023-04-26T09:59:41;100426.09;;;9.84;57.40
11223;BME280;5668;52.012;8.724;2023-04-26T10:02:14;100430.88;;;9.90;57.05
11223;BME280;5668;52.012;8.724;2023-04-26T10:04:45;100427.25;;;9.92;58.16
11223;BME280;5668;52.012;8.724;2023-04-26T10:07:14;100425.38;;;9.94;57.75
11223;BME280;5668;52.012;8.724;2023-04-26T10:09:42;100426.97;;;9.97;57.77
11223;BME280;5668;52.012;8.724;2023-04-26T10:12:13;100425.28;;;9.96;57.28
11223;BME280;5668;52.012;8.724;2023-04-26T10:14:41;100424.28;;;9.98;58.18
11223;BME280;5668;52.012;8.724;2023-04-26T10:17:09;100423.53;;;9.96;58.15
11223;BME280;5668;52.012;8.724;2023-04-26T10:19:38;100424.66;;;9.92;58.25
11223;BME280;5668;52.012;8.724;2023-04-26T10:22:15;100420.69;;;9.87;58.15
11223;BME280;5668;52.012;8.724;2023-04-26T10:24:43;100431.47;;;9.81;58.64
11223;BME280;5668;52.012;8.724;2023-04-26T10:27:11;100425.56;;;9.79;58.54
11223;BME280;5668;52.012;8.724;2023-04-26T10:30:06;100431.88;;;9.75;59.51
11223;BME280;5668;52.012;8.724;2023-04-26T10:35:59;100424.69;;;9.65;62.11
11223;BME280;5668;52.012;8.724;2023-04-26T10:38:28;100423.94;;;9.63;62.46
11223;BME280;5668;52.012;8.724;2023-04-26T10:43:55;100424.69;;;9.65;62.91
11223;BME280;5668;52.012;8.724;2023-04-26T10:46:40;100420.63;;;9.61;62.40
11223;BME280;5668;52.012;8.724;2023-04-26T10:49:17;100415.72;;;9.57;62.62
11223;BME280;5668;52.012;8.724;2023-04-26T10:52:12;100415.72;;;9.57;63.74
11223;BME280;5668;52.012;8.724;2023-04-26T10:54:58;100415.81;;;9.55;62.29
11223;BME280;5668;52.012;8.724;2023-04-26T10:57:47;100412.13;;;9.59;62.53
11223;BME280;5668;52.012;8.724;2023-04-26T11:00:28;100407.66;;;9.61;62.44
11223;BME280;5668;52.012;8.724;2023-04-26T11:02:58;100410.97;;;9.63;61.65
11223;BME280;5668;52.012;8.724;2023-04-26T11:05:49;100410.88;;;9.65;61.50
11223;BME280;5668;52.012;8.724;2023-04-26T11:08:19;100410.03;;;9.64;60.65
11223;BME280;5668;52.012;8.724;2023-04-26T11:11:04;100406.13;;;9.71;60.06
11223;BME280;5668;52.012;8.724;2023-04-26T11:13:31;100401.66;;;9.74;59.50
11223;BME280;5668;52.012;8.724;2023-04-26T11:16:00;100407.38;;;9.79;59.27
11223;BME280;5668;52.012;8.724;2023-04-26T11:18:29;100408.88;;;9.83;58.33
11223;BME280;5668;52.012;8.724;2023-04-26T11:20:57;100403.75;;;9.81;57.53
11223;BME280;5668;52.012;8.724;2023-04-26T11:23:26;100399.00;;;9.88;58.81
11223;BME280;5668;52.012;8.724;2023-04-26T11:25:57;100396.22;;;9.91;59.17
11223;BME280;5668;52.012;8.724;2023-04-26T11:28:24;100397.47;;;9.98;58.14
11223;BME280;5668;52.012;8.724;2023-04-26T11:30:52;100401.34;;;10.05;58.23
11223;BME280;5668;52.012;8.724;2023-04-26T11:33:21;100394.78;;;10.12;58.65
11223;BME280;5668;52.012;8.724;2023-04-26T11:35:49;100394.41;;;10.18;59.00
11223;BME280;5668;52.012;8.724;2023-04-26T11:38:17;100401.44;;;10.16;58.58
11223;BME280;5668;52.012;8.724;2023-04-26T11:40:44;100396.25;;;10.16;59.21
11223;BME280;5668;52.012;8.724;2023-04-26T11:43:20;100402.84;;;10.22;59.36
11223;BME280;5668;52.012;8.724;2023-04-26T11:45:47;100411.25;;;10.25;59.55
11223;BME280;5668;52.012;8.724;2023-04-26T11:48:15;100411.25;;;10.25;59.84
11223;BME280;5668;52.012;8.724;2023-04-26T11:50:43;100405.13;;;10.26;60.05
11223;BME280;5668;52.012;8.724;2023-04-26T11:53:10;100408.47;;;10.28;59.81
11223;BME280;5668;52.012;8.724;2023-04-26T11:55:39;100409.38;;;10.27;59.17
11223;BME280;5668;52.012;8.724;2023-04-26T11:58:11;100414.59;;;10.27;59.62
11223;BME280;5668;52.012;8.724;2023-04-26T12:00:55;100408.22;;;10.31;59.35
11223;BME280;5668;52.012;8.724;2023-04-26T12:03:27;100412.72;;;10.29;59.18
11223;BME280;5668;52.012;8.724;2023-04-26T12:05:54;100408.34;;;10.30;60.25
11223;BME280;5668;52.012;8.724;2023-04-26T12:08:23;100413.22;;;10.34;59.90
11223;BME280;5668;52.012;8.724;2023-04-26T12:10:50;100413.03;;;10.37;59.71
11223;BME280;5668;52.012;8.724;2023-04-26T12:13:35;100412.31;;;10.35;58.97
11223;BME280;5668;52.012;8.724;2023-04-26T12:16:13;100410.22;;;10.40;58.10
11223;BME280;5668;52.012;8.724;2023-04-26T12:18:41;100416.06;;;10.44;57.41
11223;BME280;5668;52.012;8.724;2023-04-26T12:21:15;100418.53;;;10.45;56.17
11223;BME280;5668;52.012;8.724;2023-04-26T12:23:43;100417.81;;;10.43;55.46
11223;BME280;5668;52.012;8.724;2023-04-26T12:26:13;100418.31;;;10.48;56.12
11223;BME280;5668;52.012;8.724;2023-04-26T12:28:40;100417.41;;;10.50;56.97
11223;BME280;5668;52.012;8.724;2023-04-26T12:31:08;100424.16;;;10.52;56.88
11223;BME280;5668;52.012;8.724;2023-04-26T12:33:37;100418.22;;;10.50;57.40
11223;BME280;5668;52.012;8.724;2023-04-26T12:36:08;100416.47;;;10.51;57.11
11223;BME280;5668;52.012;8.724;2023-04-26T12:38:36;100416.47;;;10.51;57.20
11223;BME280;5668;52.012;8.724;2023-04-26T12:41:03;100422.59;;;10.50;56.69
11223;BME280;5668;52.012;8.724;2023-04-26T12:43:30;100417.91;;;10.55;57.47
11223;BME280;5668;52.012;8.724;2023-04-26T12:45:58;100419.56;;;10.56;56.66
11223;BME280;5668;52.012;8.724;2023-04-26T12:48:26;100421.44;;;10.54;56.59
11223;BME280;5668;52.012;8.724;2023-04-26T12:50:55;100411.97;;;10.53;56.07
11223;BME280;5668;52.012;8.724;2023-04-26T12:53:22;100414.38;;;10.56;56.21
11223;BME280;5668;52.012;8.724;2023-04-26T12:55:49;100408.75;;;10.49;56.05
11223;BME280;5668;52.012;8.724;2023-04-26T12:58:17;100405.34;;;10.48;55.07
11223;BME280;5668;52.012;8.724;2023-04-26T13:00:44;100419.16;;;10.49;55.13
11223;BME280;5668;52.012;8.724;2023-04-26T13:03:11;100412.94;;;10.52;54.81
11223;BME280;5668;52.012;8.724;2023-04-26T13:05:39;100409.09;;;10.44;53.45
11223;BME280;5668;52.012;8.724;2023-04-26T13:08:08;100415.22;;;10.56;53.90
11223;BME280;5668;52.012;8.724;2023-04-26T13:10:35;100410.41;;;10.63;53.96
11223;BME280;5668;52.012;8.724;2023-04-26T13:13:02;100411.75;;;10.68;53.31
11223;BME280;5668;52.012;8.724;2023-04-26T13:15:29;100412.72;;;10.67;53.67
11223;BME280;5668;52.012;8.724;2023-04-26T13:17:57;100413.53;;;10.68;53.51
11223;BME280;5668;52.012;8.724;2023-04-26T13:20:24;100414.25;;;10.70;53.36
11223;BME280;5668;52.012;8.724;2023-04-26T13:22:51;100415.19;;;10.69;53.89
11223;BME280;5668;52.012;8.724;2023-04-26T13:25:20;100415.94;;;10.71;53.92